createdAt,value
2017-08-27T00:00:32.861Z,17.93
2017-08-27T00:01:13.401Z,17.96
2017-08-27T00:01:53.942Z,17.92
2017-08-27T00:02:34.484Z,17.9
2017-08-27T00:03:15.024Z,17.86
2017-08-27T00:03:55.545Z,17.89
2017-08-27T00:04:36.087Z,17.9
2017-08-27T00:05:16.612Z,17.86
2017-08-27T00:05:57.156Z,17.87
2017-08-27T00:06:37.692Z,17.81
2017-08-27T00:07:18.242Z,17.86
2017-08-27T00:07:58.783Z,17.9
2017-08-27T00:08:39.327Z,17.84
2017-08-27T00:09:19.864Z,17.89
2017-08-27T00:10:00.396Z,17.84
2017-08-27T00:10:40.932Z,17.82
2017-08-27T00:11:21.473Z,17.75
2017-08-27T00:12:02.005Z,17.78
2017-08-27T00:12:42.547Z,17.78
2017-08-27T00:13:23.081Z,17.75
2017-08-27T00:14:03.620Z,17.74
2017-08-27T00:14:44.154Z,17.77
2017-08-27T00:15:24.691Z,17.77
2017-08-27T00:16:05.229Z,17.78
2017-08-27T00:16:45.770Z,17.78
2017-08-27T00:17:26.317Z,17.84
2017-08-27T00:18:06.852Z,17.81
2017-08-27T00:18:47.399Z,17.78
2017-08-27T00:19:27.939Z,17.74
2017-08-27T00:20:08.478Z,17.72
2017-08-27T00:20:49.012Z,17.74
2017-08-27T00:21:29.557Z,17.77
2017-08-27T00:22:10.097Z,17.75
2017-08-27T00:22:50.626Z,17.81
2017-08-27T00:23:31.163Z,17.74
2017-08-27T00:24:11.699Z,17.74
2017-08-27T00:24:52.238Z,17.75
2017-08-27T00:25:32.781Z,17.81
2017-08-27T00:26:13.311Z,17.68
2017-08-27T00:26:53.847Z,17.77
2017-08-27T00:27:34.402Z,17.78
2017-08-27T00:28:14.932Z,17.77
2017-08-27T00:28:55.480Z,17.71
2017-08-27T00:29:36.019Z,17.77
2017-08-27T00:30:16.560Z,17.71
2017-08-27T00:30:57.099Z,17.79
2017-08-27T00:31:37.639Z,17.72
2017-08-27T00:32:18.179Z,17.72
2017-08-27T00:32:58.716Z,17.72
2017-08-27T00:33:39.254Z,17.72
2017-08-27T00:34:19.805Z,17.75
2017-08-27T00:35:00.335Z,17.7
2017-08-27T00:35:40.875Z,17.64
2017-08-27T00:36:21.414Z,17.72
2017-08-27T00:37:01.948Z,17.72
2017-08-27T00:37:42.478Z,17.78
2017-08-27T00:38:23.013Z,17.77
2017-08-27T00:39:03.550Z,17.72
2017-08-27T00:39:44.089Z,17.63
2017-08-27T00:40:24.626Z,17.72
2017-08-27T00:41:05.165Z,17.74
2017-08-27T00:41:45.708Z,17.72
2017-08-27T00:42:26.242Z,17.72
2017-08-27T00:43:06.775Z,17.75
2017-08-27T00:43:47.314Z,17.72
2017-08-27T00:44:27.852Z,17.77
2017-08-27T00:45:08.391Z,17.74
2017-08-27T00:45:48.930Z,17.7
2017-08-27T00:46:29.471Z,17.68
2017-08-27T00:47:10.005Z,17.72
2017-08-27T00:47:50.540Z,17.77
2017-08-27T00:48:31.082Z,17.72
2017-08-27T00:49:11.616Z,17.75
2017-08-27T00:49:52.155Z,17.72
2017-08-27T00:50:32.699Z,17.78
2017-08-27T00:51:13.235Z,17.81
2017-08-27T00:51:53.773Z,17.81
2017-08-27T00:52:34.310Z,17.72
2017-08-27T00:53:14.840Z,17.77
2017-08-27T00:53:55.383Z,17.74
2017-08-27T00:54:35.921Z,17.74
2017-08-27T00:55:16.458Z,17.77
2017-08-27T00:55:57.005Z,17.82
2017-08-27T00:56:37.540Z,17.77
2017-08-27T00:57:18.078Z,17.77
2017-08-27T00:57:58.616Z,17.71
2017-08-27T00:58:39.158Z,17.74
2017-08-27T00:59:19.694Z,17.74
2017-08-27T01:00:00.226Z,17.77
2017-08-27T01:00:40.779Z,17.75
2017-08-27T01:01:21.311Z,17.79
2017-08-27T01:02:01.844Z,17.72
2017-08-27T01:02:42.385Z,17.78
2017-08-27T01:03:22.926Z,17.78
2017-08-27T01:04:03.466Z,17.77
2017-08-27T01:04:44.003Z,17.74
2017-08-27T01:05:24.538Z,17.81
2017-08-27T01:06:05.083Z,17.77
2017-08-27T01:06:45.617Z,17.74
2017-08-27T01:07:26.163Z,17.77
2017-08-27T01:08:06.704Z,17.77
2017-08-27T01:08:47.248Z,17.79
2017-08-27T01:09:27.790Z,17.75
2017-08-27T01:10:08.333Z,17.78
2017-08-27T01:10:48.872Z,17.78
2017-08-27T01:11:29.394Z,17.79
2017-08-27T01:12:09.924Z,17.79
2017-08-27T01:12:50.467Z,17.75
2017-08-27T01:13:31.010Z,17.74
2017-08-27T01:14:11.550Z,17.79
2017-08-27T01:14:52.088Z,17.77
2017-08-27T01:15:32.629Z,17.78
2017-08-27T01:16:13.168Z,17.72
2017-08-27T01:16:53.706Z,17.71
2017-08-27T01:17:34.246Z,17.72
2017-08-27T01:18:14.785Z,17.71
2017-08-27T01:18:55.319Z,17.75
2017-08-27T01:19:35.859Z,17.72
2017-08-27T01:20:16.401Z,17.66
2017-08-27T01:20:56.928Z,17.7
2017-08-27T01:21:37.465Z,17.75
2017-08-27T01:22:18.013Z,17.66
2017-08-27T01:22:58.583Z,17.7
2017-08-27T01:23:39.120Z,17.72
2017-08-27T01:24:19.665Z,17.66
2017-08-27T01:25:00.215Z,17.63
2017-08-27T01:25:40.763Z,17.66
2017-08-27T01:26:21.290Z,17.7
2017-08-27T01:27:01.910Z,17.63
2017-08-27T01:27:42.454Z,17.66
2017-08-27T01:28:23.060Z,17.63
2017-08-27T01:29:03.600Z,17.64
2017-08-27T01:29:44.132Z,17.55
2017-08-27T01:30:24.672Z,17.55
2017-08-27T01:31:05.222Z,17.62
2017-08-27T01:31:45.761Z,17.55
2017-08-27T01:32:26.302Z,17.59
2017-08-27T01:33:06.868Z,17.58
2017-08-27T01:33:47.405Z,17.56
2017-08-27T01:34:27.936Z,17.51
2017-08-27T01:35:08.467Z,17.52
2017-08-27T01:35:49.014Z,17.55
2017-08-27T01:36:29.548Z,17.48
2017-08-27T01:37:10.092Z,17.51
2017-08-27T01:37:50.631Z,17.43
2017-08-27T01:38:31.167Z,17.43
2017-08-27T01:39:11.697Z,17.44
2017-08-27T01:39:52.245Z,17.43
2017-08-27T01:40:32.782Z,17.44
2017-08-27T01:41:13.323Z,17.36
2017-08-27T01:41:53.860Z,17.48
2017-08-27T01:42:34.401Z,17.36
2017-08-27T01:43:14.941Z,17.38
2017-08-27T01:43:55.479Z,17.34
2017-08-27T01:44:36.021Z,17.33
2017-08-27T01:45:16.562Z,17.36
2017-08-27T01:45:57.093Z,17.28
2017-08-27T01:46:37.636Z,17.31
2017-08-27T01:47:18.183Z,17.26
2017-08-27T01:47:58.713Z,17.31
2017-08-27T01:48:39.260Z,17.26
2017-08-27T01:49:19.793Z,17.25
2017-08-27T01:50:00.333Z,17.33
2017-08-27T01:50:40.875Z,17.3
2017-08-27T01:51:21.405Z,17.3
2017-08-27T01:52:01.963Z,17.26
2017-08-27T01:52:42.487Z,17.3
2017-08-27T01:53:23.036Z,17.34
2017-08-27T01:54:03.580Z,17.31
2017-08-27T01:54:44.119Z,17.31
2017-08-27T01:55:24.665Z,17.31
2017-08-27T01:56:05.207Z,17.3
2017-08-27T01:56:45.787Z,17.3
2017-08-27T01:57:26.317Z,17.3
2017-08-27T01:58:06.859Z,17.18
2017-08-27T01:58:47.400Z,17.3
2017-08-27T01:59:27.944Z,17.19
2017-08-27T02:00:08.489Z,17.23
2017-08-27T02:00:49.016Z,17.21
2017-08-27T02:01:29.557Z,17.22
2017-08-27T02:02:10.094Z,17.25
2017-08-27T02:02:50.643Z,17.21
2017-08-27T02:03:31.177Z,17.33
2017-08-27T02:04:11.726Z,17.23
2017-08-27T02:04:52.275Z,17.23
2017-08-27T02:05:32.801Z,17.25
2017-08-27T02:06:13.338Z,17.22
2017-08-27T02:06:53.867Z,17.28
2017-08-27T02:07:34.405Z,17.3
2017-08-27T02:08:14.930Z,17.23
2017-08-27T02:08:55.464Z,17.28
2017-08-27T02:09:36.003Z,17.26
2017-08-27T02:10:16.535Z,17.26
2017-08-27T02:10:57.071Z,17.25
2017-08-27T02:11:37.614Z,17.28
2017-08-27T02:12:18.154Z,17.31
2017-08-27T02:12:58.715Z,17.33
2017-08-27T02:13:39.257Z,17.18
2017-08-27T02:14:19.794Z,17.23
2017-08-27T02:15:00.330Z,17.18
2017-08-27T02:15:40.867Z,17.25
2017-08-27T02:16:21.406Z,17.18
2017-08-27T02:17:01.931Z,17.22
2017-08-27T02:17:42.480Z,17.23
2017-08-27T02:18:23.009Z,17.23
2017-08-27T02:19:03.549Z,17.19
2017-08-27T02:19:44.089Z,17.21
2017-08-27T02:20:24.628Z,17.23
2017-08-27T02:21:05.170Z,17.15
2017-08-27T02:21:45.715Z,17.26
2017-08-27T02:22:26.247Z,17.19
2017-08-27T02:23:06.781Z,17.22
2017-08-27T02:23:47.323Z,17.21
2017-08-27T02:24:27.874Z,17.18
2017-08-27T02:25:08.405Z,17.26
2017-08-27T02:25:48.948Z,17.15
2017-08-27T02:26:29.479Z,17.25
2017-08-27T02:27:10.043Z,17.23
2017-08-27T02:27:50.579Z,17.21
2017-08-27T02:28:31.121Z,17.18
2017-08-27T02:29:11.663Z,17.15
2017-08-27T02:29:52.187Z,17.19
2017-08-27T02:30:32.726Z,17.21
2017-08-27T02:31:13.261Z,17.21
2017-08-27T02:31:53.801Z,17.19
2017-08-27T02:32:34.352Z,17.21
2017-08-27T02:33:14.892Z,17.18
2017-08-27T02:33:55.431Z,17.23
2017-08-27T02:34:35.969Z,17.25
2017-08-27T02:35:16.499Z,17.21
2017-08-27T02:35:57.148Z,17.19
2017-08-27T02:36:37.698Z,17.21
2017-08-27T02:37:18.247Z,17.18
2017-08-27T02:37:58.750Z,17.19
2017-08-27T02:38:39.284Z,17.15
2017-08-27T02:39:19.825Z,17.16
2017-08-27T02:40:00.362Z,17.07
2017-08-27T02:40:40.901Z,17.19
2017-08-27T02:41:21.441Z,17.15
2017-08-27T02:42:01.981Z,17.07
2017-08-27T02:42:42.511Z,17.03
2017-08-27T02:43:23.048Z,17.16
2017-08-27T02:44:03.594Z,17.08
2017-08-27T02:44:44.129Z,17
2017-08-27T02:45:24.658Z,17
2017-08-27T02:46:05.193Z,17.01
2017-08-27T02:46:45.733Z,17.04
2017-08-27T02:47:26.271Z,17.12
2017-08-27T02:48:06.803Z,17.07
2017-08-27T02:48:47.342Z,17.08
2017-08-27T02:49:27.873Z,17.04
2017-08-27T02:50:08.425Z,17.07
2017-08-27T02:50:48.961Z,17.11
2017-08-27T02:51:29.522Z,17.06
2017-08-27T02:52:10.032Z,17.06
2017-08-27T02:52:50.572Z,17.06
2017-08-27T02:53:31.119Z,17.04
2017-08-27T02:54:11.657Z,17.04
2017-08-27T02:54:52.185Z,17.06
2017-08-27T02:55:32.716Z,17.01
2017-08-27T02:56:13.256Z,17.06
2017-08-27T02:56:53.812Z,17.04
2017-08-27T02:57:34.337Z,17
2017-08-27T02:58:14.875Z,16.96
2017-08-27T02:58:55.406Z,17
2017-08-27T02:59:35.945Z,16.96
2017-08-27T03:00:16.485Z,17
2017-08-27T03:00:57.025Z,17.01
2017-08-27T03:01:37.560Z,17
2017-08-27T03:02:18.101Z,17.01
2017-08-27T03:02:58.642Z,16.97
2017-08-27T03:03:39.179Z,17
2017-08-27T03:04:19.716Z,16.97
2017-08-27T03:05:00.257Z,16.94
2017-08-27T03:05:40.792Z,16.94
2017-08-27T03:06:21.325Z,16.91
2017-08-27T03:07:01.887Z,17.07
2017-08-27T03:07:42.423Z,16.89
2017-08-27T03:08:22.955Z,16.94
2017-08-27T03:09:03.497Z,16.88
2017-08-27T03:09:44.035Z,16.96
2017-08-27T03:10:24.576Z,16.97
2017-08-27T03:11:05.127Z,16.94
2017-08-27T03:11:45.662Z,16.91
2017-08-27T03:12:26.205Z,16.97
2017-08-27T03:13:06.728Z,16.91
2017-08-27T03:13:47.265Z,16.89
2017-08-27T03:14:27.808Z,16.96
2017-08-27T03:15:08.361Z,16.91
2017-08-27T03:15:48.899Z,16.83
2017-08-27T03:16:29.448Z,16.86
2017-08-27T03:17:09.993Z,16.89
2017-08-27T03:17:50.532Z,16.91
2017-08-27T03:18:31.074Z,16.86
2017-08-27T03:19:11.609Z,16.86
2017-08-27T03:19:52.151Z,16.86
2017-08-27T03:20:32.692Z,16.93
2017-08-27T03:21:13.221Z,16.91
2017-08-27T03:21:53.777Z,16.81
2017-08-27T03:22:34.289Z,16.85
2017-08-27T03:23:14.827Z,16.88
2017-08-27T03:23:55.359Z,16.89
2017-08-27T03:24:35.896Z,16.81
2017-08-27T03:25:16.430Z,16.86
2017-08-27T03:25:56.974Z,16.89
2017-08-27T03:26:37.502Z,16.85
2017-08-27T03:27:18.045Z,16.82
2017-08-27T03:27:58.585Z,16.82
2017-08-27T03:28:39.117Z,16.86
2017-08-27T03:29:19.648Z,16.85
2017-08-27T03:30:00.185Z,16.82
2017-08-27T03:30:40.724Z,16.81
2017-08-27T03:31:21.259Z,16.83
2017-08-27T03:32:01.801Z,16.83
2017-08-27T03:32:42.342Z,16.82
2017-08-27T03:33:22.887Z,16.78
2017-08-27T03:34:03.425Z,16.86
2017-08-27T03:34:43.956Z,16.78
2017-08-27T03:35:24.489Z,16.78
2017-08-27T03:36:05.022Z,16.75
2017-08-27T03:36:45.562Z,16.82
2017-08-27T03:37:26.102Z,16.75
2017-08-27T03:38:06.649Z,16.68
2017-08-27T03:38:47.195Z,16.73
2017-08-27T03:39:27.733Z,16.71
2017-08-27T03:40:08.274Z,16.75
2017-08-27T03:40:48.820Z,16.68
2017-08-27T03:41:29.354Z,16.68
2017-08-27T03:42:09.894Z,16.73
2017-08-27T03:42:50.436Z,16.66
2017-08-27T03:43:30.968Z,16.7
2017-08-27T03:44:11.514Z,16.63
2017-08-27T03:44:52.054Z,16.73
2017-08-27T03:45:32.582Z,16.7
2017-08-27T03:46:13.109Z,16.66
2017-08-27T03:46:53.638Z,16.71
2017-08-27T03:47:34.180Z,16.68
2017-08-27T03:48:14.721Z,16.68
2017-08-27T03:48:55.257Z,16.66
2017-08-27T03:49:35.802Z,16.68
2017-08-27T03:50:16.347Z,16.68
2017-08-27T03:50:56.890Z,16.68
2017-08-27T03:51:37.426Z,16.61
2017-08-27T03:52:17.971Z,16.7
2017-08-27T03:52:58.508Z,16.58
2017-08-27T03:53:39.028Z,16.68
2017-08-27T03:54:19.580Z,16.64
2017-08-27T03:55:00.118Z,16.6
2017-08-27T03:55:40.661Z,16.6
2017-08-27T03:56:21.202Z,16.66
2017-08-27T03:57:01.743Z,16.68
2017-08-27T03:57:42.280Z,16.52
2017-08-27T03:58:22.815Z,16.68
2017-08-27T03:59:03.351Z,16.68
2017-08-27T03:59:43.893Z,16.6
2017-08-27T04:00:24.436Z,16.68
2017-08-27T04:01:04.975Z,16.57
2017-08-27T04:01:45.518Z,16.57
2017-08-27T04:02:26.058Z,16.6
2017-08-27T04:03:06.597Z,16.58
2017-08-27T04:03:47.135Z,16.53
2017-08-27T04:04:27.676Z,16.53
2017-08-27T04:05:08.213Z,16.58
2017-08-27T04:05:48.755Z,16.61
2017-08-27T04:06:29.288Z,16.53
2017-08-27T04:07:09.830Z,16.58
2017-08-27T04:07:50.366Z,16.58
2017-08-27T04:08:30.909Z,16.57
2017-08-27T04:09:11.495Z,16.56
2017-08-27T04:09:52.033Z,16.56
2017-08-27T04:10:32.572Z,16.56
2017-08-27T04:11:14.545Z,16.52
2017-08-27T04:11:56.161Z,16.66
2017-08-27T04:12:37.551Z,16.64
2017-08-27T04:13:19.372Z,16.58
2017-08-27T04:13:59.833Z,16.56
2017-08-27T04:14:40.374Z,16.52
2017-08-27T04:15:20.911Z,16.56
2017-08-27T04:16:01.450Z,16.58
2017-08-27T04:16:41.993Z,16.58
2017-08-27T04:17:22.531Z,16.61
2017-08-27T04:18:03.070Z,16.56
2017-08-27T04:18:43.608Z,16.58
2017-08-27T04:19:24.147Z,16.5
2017-08-27T04:20:04.689Z,16.64
2017-08-27T04:20:45.228Z,16.57
2017-08-27T04:21:25.767Z,16.56
2017-08-27T04:22:06.304Z,16.66
2017-08-27T04:22:46.843Z,16.57
2017-08-27T04:23:27.381Z,16.61
2017-08-27T04:24:07.922Z,16.64
2017-08-27T04:24:48.462Z,16.53
2017-08-27T04:25:29.004Z,16.6
2017-08-27T04:26:09.540Z,16.58
2017-08-27T04:26:50.081Z,16.57
2017-08-27T04:27:30.622Z,16.57
2017-08-27T04:28:11.159Z,16.61
2017-08-27T04:28:51.696Z,16.58
2017-08-27T04:29:32.241Z,16.58
2017-08-27T04:30:12.774Z,16.57
2017-08-27T04:30:53.312Z,16.53
2017-08-27T04:31:33.849Z,16.56
2017-08-27T04:32:14.383Z,16.6
2017-08-27T04:32:54.926Z,16.6
2017-08-27T04:33:35.465Z,16.57
2017-08-27T04:34:16.002Z,16.61
2017-08-27T04:34:56.542Z,16.61
2017-08-27T04:35:37.087Z,16.53
2017-08-27T04:36:17.627Z,16.6
2017-08-27T04:36:58.166Z,16.58
2017-08-27T04:37:38.703Z,16.56
2017-08-27T04:38:19.242Z,16.6
2017-08-27T04:38:59.783Z,16.58
2017-08-27T04:39:40.319Z,16.6
2017-08-27T04:40:20.860Z,16.48
2017-08-27T04:41:01.400Z,16.57
2017-08-27T04:41:41.941Z,16.61
2017-08-27T04:42:22.481Z,16.58
2017-08-27T04:43:03.022Z,16.57
2017-08-27T04:43:43.563Z,16.58
2017-08-27T04:44:24.100Z,16.63
2017-08-27T04:45:04.627Z,16.56
2017-08-27T04:45:45.166Z,16.57
2017-08-27T04:46:25.703Z,16.66
2017-08-27T04:47:06.236Z,16.67
2017-08-27T04:47:46.771Z,16.61
2017-08-27T04:48:27.316Z,16.64
2017-08-27T04:49:07.868Z,16.58
2017-08-27T04:49:48.400Z,16.61
2017-08-27T04:50:28.929Z,16.63
2017-08-27T04:51:09.475Z,16.61
2017-08-27T04:51:50.009Z,16.64
2017-08-27T04:52:30.551Z,16.64
2017-08-27T04:53:11.087Z,16.61
2017-08-27T04:53:51.622Z,16.67
2017-08-27T04:54:32.159Z,16.68
2017-08-27T04:55:12.697Z,16.71
2017-08-27T04:55:53.234Z,16.7
2017-08-27T04:56:33.771Z,16.67
2017-08-27T04:57:14.314Z,16.71
2017-08-27T04:57:54.866Z,16.66
2017-08-27T04:58:35.402Z,16.68
2017-08-27T04:59:15.948Z,16.6
2017-08-27T04:59:56.489Z,16.68
2017-08-27T05:00:37.015Z,16.67
2017-08-27T05:01:17.576Z,16.67
2017-08-27T05:01:58.090Z,16.76
2017-08-27T05:02:38.625Z,16.73
2017-08-27T05:03:19.143Z,16.63
2017-08-27T05:03:59.686Z,16.61
2017-08-27T05:04:40.228Z,16.64
2017-08-27T05:05:20.781Z,16.61
2017-08-27T05:06:01.333Z,16.64
2017-08-27T05:06:41.853Z,16.64
2017-08-27T05:07:22.409Z,16.7
2017-08-27T05:08:02.946Z,16.7
2017-08-27T05:08:43.489Z,16.67
2017-08-27T05:09:24.026Z,16.68
2017-08-27T05:10:04.568Z,16.68
2017-08-27T05:10:45.108Z,16.7
2017-08-27T05:11:25.648Z,16.68
2017-08-27T05:12:06.188Z,16.67
2017-08-27T05:12:46.714Z,16.7
2017-08-27T05:13:27.293Z,16.76
2017-08-27T05:14:07.793Z,16.78
2017-08-27T05:14:48.335Z,16.76
2017-08-27T05:15:28.870Z,16.78
2017-08-27T05:16:09.412Z,16.78
2017-08-27T05:16:49.936Z,16.79
2017-08-27T05:17:30.479Z,16.81
2017-08-27T05:18:11.004Z,16.81
2017-08-27T05:18:51.551Z,16.76
2017-08-27T05:19:32.085Z,16.83
2017-08-27T05:20:12.640Z,16.82
2017-08-27T05:20:53.165Z,16.78
2017-08-27T05:21:33.707Z,16.86
2017-08-27T05:22:14.245Z,16.81
2017-08-27T05:22:54.797Z,16.82
2017-08-27T05:23:35.338Z,16.75
2017-08-27T05:24:15.877Z,16.83
2017-08-27T05:24:56.411Z,16.83
2017-08-27T05:25:36.951Z,16.86
2017-08-27T05:26:17.492Z,16.82
2017-08-27T05:26:58.034Z,16.86
2017-08-27T05:27:38.562Z,16.85
2017-08-27T05:28:19.100Z,16.85
2017-08-27T05:28:59.631Z,16.89
2017-08-27T05:29:40.165Z,16.86
2017-08-27T05:30:20.701Z,16.85
2017-08-27T05:31:01.238Z,16.89
2017-08-27T05:31:41.776Z,16.86
2017-08-27T05:32:22.303Z,16.88
2017-08-27T05:33:02.846Z,16.86
2017-08-27T05:33:43.394Z,16.96
2017-08-27T05:34:23.939Z,16.91
2017-08-27T05:35:04.478Z,16.96
2017-08-27T05:35:45.017Z,16.89
2017-08-27T05:36:25.566Z,16.97
2017-08-27T05:37:06.093Z,17
2017-08-27T05:37:46.629Z,16.91
2017-08-27T05:38:27.164Z,16.96
2017-08-27T05:39:07.698Z,17.04
2017-08-27T05:39:48.230Z,16.97
2017-08-27T05:40:28.770Z,16.96
2017-08-27T05:41:09.311Z,16.94
2017-08-27T05:41:49.842Z,16.94
2017-08-27T05:42:30.387Z,16.94
2017-08-27T05:43:10.936Z,16.98
2017-08-27T05:43:51.477Z,17.07
2017-08-27T05:44:32.015Z,17.03
2017-08-27T05:45:12.614Z,17.04
2017-08-27T05:45:53.132Z,17.04
2017-08-27T05:46:33.665Z,17.04
2017-08-27T05:47:14.204Z,17.04
2017-08-27T05:47:54.742Z,17.12
2017-08-27T05:48:35.280Z,17.06
2017-08-27T05:49:15.814Z,17.06
2017-08-27T05:49:56.364Z,17.12
2017-08-27T05:50:36.897Z,17.07
2017-08-27T05:51:17.437Z,17.08
2017-08-27T05:51:57.985Z,17.15
2017-08-27T05:52:38.515Z,17.15
2017-08-27T05:53:19.062Z,17.14
2017-08-27T05:53:59.588Z,17.15
2017-08-27T05:54:40.122Z,17.15
2017-08-27T05:55:20.661Z,17.14
2017-08-27T05:56:01.204Z,17
2017-08-27T05:56:41.749Z,17.19
2017-08-27T05:57:22.281Z,17.18
2017-08-27T05:58:02.825Z,17.18
2017-08-27T05:58:43.368Z,17.18
2017-08-27T05:59:23.905Z,17.19
2017-08-27T06:00:04.441Z,17.18
2017-08-27T06:00:44.974Z,17.21
2017-08-27T06:01:25.523Z,17.26
2017-08-27T06:02:06.057Z,17.21
2017-08-27T06:02:46.594Z,17.23
2017-08-27T06:03:27.137Z,17.28
2017-08-27T06:04:07.682Z,17.3
2017-08-27T06:04:48.211Z,17.21
2017-08-27T06:05:28.763Z,17.25
2017-08-27T06:06:09.283Z,17.34
2017-08-27T06:06:49.833Z,17.25
2017-08-27T06:07:30.365Z,17.3
2017-08-27T06:08:10.909Z,17.4
2017-08-27T06:08:51.438Z,17.34
2017-08-27T06:09:31.964Z,17.37
2017-08-27T06:10:12.503Z,17.48
2017-08-27T06:10:53.031Z,17.46
2017-08-27T06:11:33.573Z,17.52
2017-08-27T06:12:14.114Z,17.51
2017-08-27T06:12:54.654Z,17.52
2017-08-27T06:13:35.195Z,17.54
2017-08-27T06:14:15.734Z,17.55
2017-08-27T06:14:56.275Z,17.59
2017-08-27T06:15:36.817Z,17.51
2017-08-27T06:16:17.353Z,17.64
2017-08-27T06:16:57.893Z,17.63
2017-08-27T06:17:38.438Z,17.55
2017-08-27T06:18:18.972Z,17.66
2017-08-27T06:18:59.520Z,17.7
2017-08-27T06:19:40.044Z,17.64
2017-08-27T06:20:20.581Z,17.64
2017-08-27T06:21:01.119Z,17.71
2017-08-27T06:21:41.658Z,17.68
2017-08-27T06:22:22.209Z,17.58
2017-08-27T06:23:02.734Z,17.71
2017-08-27T06:23:43.277Z,17.66
2017-08-27T06:24:23.816Z,17.63
2017-08-27T06:25:04.372Z,17.66
2017-08-27T06:25:44.908Z,17.66
2017-08-27T06:26:25.445Z,17.7
2017-08-27T06:27:05.976Z,17.72
2017-08-27T06:27:46.516Z,17.66
2017-08-27T06:28:27.050Z,17.64
2017-08-27T06:29:07.592Z,17.63
2017-08-27T06:29:48.152Z,17.71
2017-08-27T06:30:28.671Z,17.7
2017-08-27T06:31:09.208Z,17.62
2017-08-27T06:31:49.733Z,17.66
2017-08-27T06:32:30.269Z,17.66
2017-08-27T06:33:10.831Z,17.68
2017-08-27T06:33:51.333Z,17.66
2017-08-27T06:34:31.874Z,17.63
2017-08-27T06:35:12.415Z,17.71
2017-08-27T06:35:52.948Z,17.71
2017-08-27T06:36:33.492Z,17.75
2017-08-27T06:37:14.033Z,17.75
2017-08-27T06:37:54.557Z,17.74
2017-08-27T06:38:35.108Z,17.72
2017-08-27T06:39:15.640Z,17.75
2017-08-27T06:39:56.186Z,17.78
2017-08-27T06:40:36.714Z,17.81
2017-08-27T06:41:17.266Z,17.81
2017-08-27T06:42:00.504Z,17.81
2017-08-27T06:42:41.041Z,17.9
2017-08-27T06:43:21.586Z,17.9
2017-08-27T06:44:02.114Z,17.89
2017-08-27T06:44:42.636Z,17.96
2017-08-27T06:45:23.219Z,17.89
2017-08-27T06:46:03.750Z,17.93
2017-08-27T06:46:44.284Z,17.93
2017-08-27T06:47:24.829Z,17.97
2017-08-27T06:48:05.359Z,17.92
2017-08-27T06:48:45.897Z,18.03
2017-08-27T06:49:26.439Z,18.05
2017-08-27T06:50:06.976Z,18.1
2017-08-27T06:50:47.509Z,18.17
2017-08-27T06:51:28.037Z,18.15
2017-08-27T06:52:08.576Z,18.17
2017-08-27T06:52:49.112Z,18.15
2017-08-27T06:53:29.657Z,18.17
2017-08-27T06:54:10.190Z,18.29
2017-08-27T06:54:50.727Z,18.26
2017-08-27T06:55:31.279Z,18.26
2017-08-27T06:56:11.818Z,18.3
2017-08-27T06:56:52.355Z,18.32
2017-08-27T06:57:32.890Z,18.3
2017-08-27T06:58:13.432Z,18.39
2017-08-27T06:58:53.967Z,18.33
2017-08-27T06:59:34.503Z,18.35
2017-08-27T07:00:15.042Z,18.33
2017-08-27T07:00:55.579Z,18.36
2017-08-27T07:01:36.113Z,18.45
2017-08-27T07:02:16.657Z,18.48
2017-08-27T07:02:57.195Z,18.45
2017-08-27T07:03:37.742Z,18.42
2017-08-27T07:04:18.265Z,18.5
2017-08-27T07:04:58.801Z,18.5
2017-08-27T07:05:39.354Z,18.55
2017-08-27T07:06:19.891Z,18.58
2017-08-27T07:07:00.416Z,18.58
2017-08-27T07:07:40.947Z,18.51
2017-08-27T07:08:21.467Z,18.5
2017-08-27T07:09:01.988Z,18.48
2017-08-27T07:09:42.502Z,18.52
2017-08-27T07:10:23.052Z,18.54
2017-08-27T07:11:03.580Z,18.63
2017-08-27T07:11:44.163Z,18.62
2017-08-27T07:12:24.704Z,18.66
2017-08-27T07:13:05.217Z,18.57
2017-08-27T07:13:45.737Z,18.63
2017-08-27T07:14:26.258Z,18.65
2017-08-27T07:15:06.793Z,18.76
2017-08-27T07:15:47.335Z,18.73
2017-08-27T07:16:27.919Z,18.75
2017-08-27T07:17:08.456Z,18.75
2017-08-27T07:17:48.987Z,18.75
2017-08-27T07:18:29.535Z,18.7
2017-08-27T07:19:10.076Z,18.73
2017-08-27T07:19:50.621Z,18.75
2017-08-27T07:20:31.148Z,18.72
2017-08-27T07:21:11.685Z,18.8
2017-08-27T07:21:52.225Z,18.8
2017-08-27T07:22:32.766Z,18.73
2017-08-27T07:23:13.373Z,18.81
2017-08-27T07:23:53.915Z,18.8
2017-08-27T07:24:34.488Z,18.75
2017-08-27T07:25:15.083Z,18.78
2017-08-27T07:25:55.710Z,18.85
2017-08-27T07:26:36.274Z,18.84
2017-08-27T07:27:16.815Z,18.92
2017-08-27T07:27:57.479Z,18.92
2017-08-27T07:28:38.089Z,19.02
2017-08-27T07:29:18.787Z,19.06
2017-08-27T07:29:59.417Z,18.92
2017-08-27T07:30:39.995Z,18.94
2017-08-27T07:31:20.622Z,18.94
2017-08-27T07:32:01.363Z,18.99
2017-08-27T07:32:42.318Z,18.94
2017-08-27T07:33:23.015Z,18.98
2017-08-27T07:34:03.607Z,18.95
2017-08-27T07:34:44.147Z,19.02
2017-08-27T07:35:24.794Z,19.02
2017-08-27T07:36:05.633Z,19.08
2017-08-27T07:36:46.515Z,19.07
2017-08-27T07:37:27.137Z,19.04
2017-08-27T07:38:07.720Z,19.02
2017-08-27T07:38:48.475Z,19.04
2017-08-27T07:39:29.201Z,19.04
2017-08-27T07:40:09.865Z,19.06
2017-08-27T07:40:50.404Z,19.06
2017-08-27T07:41:30.951Z,19.06
2017-08-27T07:42:11.563Z,19.07
2017-08-27T07:42:52.110Z,19.06
2017-08-27T07:43:32.652Z,19.07
2017-08-27T07:44:13.196Z,19.02
2017-08-27T07:44:53.974Z,19.07
2017-08-27T07:45:34.709Z,19.11
2017-08-27T07:46:15.238Z,19.18
2017-08-27T07:46:55.774Z,19.19
2017-08-27T07:47:36.324Z,19.32
2017-08-27T07:48:16.880Z,19.29
2017-08-27T07:48:57.861Z,19.43
2017-08-27T07:49:38.383Z,19.5
2017-08-27T07:50:18.930Z,19.63
2017-08-27T07:50:59.467Z,19.55
2017-08-27T07:51:40.011Z,19.66
2017-08-27T07:52:20.556Z,19.77
2017-08-27T07:53:01.398Z,19.77
2017-08-27T07:53:42.155Z,19.71
2017-08-27T07:54:22.709Z,19.8
2017-08-27T07:55:03.245Z,19.76
2017-08-27T07:55:43.781Z,19.87
2017-08-27T07:56:24.358Z,19.91
2017-08-27T07:57:04.941Z,19.88
2017-08-27T07:57:45.468Z,19.98
2017-08-27T07:58:26.141Z,19.99
2017-08-27T07:59:06.810Z,20.08
2017-08-27T07:59:47.378Z,20.13
2017-08-27T08:00:27.939Z,20.06
2017-08-27T08:01:08.483Z,20.08
2017-08-27T08:01:49.024Z,20.14
2017-08-27T08:02:29.563Z,20.14
2017-08-27T08:03:10.118Z,20.17
2017-08-27T08:03:50.640Z,20.23
2017-08-27T08:04:31.358Z,20.2
2017-08-27T08:05:11.893Z,20.35
2017-08-27T08:05:52.438Z,20.33
2017-08-27T08:06:33.279Z,20.41
2017-08-27T08:07:14.018Z,20.42
2017-08-27T08:07:55.023Z,20.52
2017-08-27T08:08:35.563Z,20.61
2017-08-27T08:09:16.137Z,20.66
2017-08-27T08:09:56.683Z,20.7
2017-08-27T08:10:37.207Z,20.82
2017-08-27T08:11:17.756Z,20.92
2017-08-27T08:11:58.350Z,21.01
2017-08-27T08:12:39.011Z,20.98
2017-08-27T08:13:19.574Z,20.97
2017-08-27T08:14:00.114Z,20.98
2017-08-27T08:14:40.664Z,20.97
2017-08-27T08:15:21.187Z,20.89
2017-08-27T08:16:01.730Z,20.89
2017-08-27T08:16:42.277Z,20.88
2017-08-27T08:17:22.812Z,20.85
2017-08-27T08:18:03.366Z,20.92
2017-08-27T08:18:43.906Z,20.94
2017-08-27T08:19:24.449Z,21.06
2017-08-27T08:20:04.998Z,21.13
2017-08-27T08:20:45.543Z,20.98
2017-08-27T08:21:26.073Z,21.06
2017-08-27T08:22:06.660Z,21.04
2017-08-27T08:22:47.205Z,21.06
2017-08-27T08:23:27.758Z,21.1
2017-08-27T08:24:08.320Z,21.13
2017-08-27T08:24:48.858Z,21.1
2017-08-27T08:25:29.411Z,21.22
2017-08-27T08:26:09.951Z,21.19
2017-08-27T08:26:50.501Z,21.28
2017-08-27T08:27:31.043Z,21.34
2017-08-27T08:28:11.593Z,21.44
2017-08-27T08:28:52.131Z,21.59
2017-08-27T08:29:32.675Z,21.62
2017-08-27T08:30:13.222Z,21.74
2017-08-27T08:30:53.760Z,21.8
2017-08-27T08:31:34.305Z,21.84
2017-08-27T08:32:14.832Z,22.06
2017-08-27T08:32:55.384Z,22.15
2017-08-27T08:33:35.932Z,22.25
2017-08-27T08:34:16.476Z,22.43
2017-08-27T08:34:57.020Z,22.43
2017-08-27T08:35:37.567Z,22.58
2017-08-27T08:36:18.136Z,22.65
2017-08-27T08:36:58.684Z,22.75
2017-08-27T08:37:39.235Z,22.85
2017-08-27T08:38:19.766Z,22.92
2017-08-27T08:39:00.317Z,23
2017-08-27T08:39:40.893Z,23.04
2017-08-27T08:40:21.439Z,23.17
2017-08-27T08:41:01.985Z,23.19
2017-08-27T08:41:42.524Z,23.25
2017-08-27T08:42:23.070Z,23.2
2017-08-27T08:43:03.621Z,23.12
2017-08-27T08:43:44.172Z,23.19
2017-08-27T08:44:24.715Z,23.07